PASY METAR and TAF weather

Enter ICAO airport designator
Station Type Date Time Source
PASY METAR 2022/01/29 11:59 UTC NOAA

PASY 291159Z 35008KT 5SM -RA BR BKN009 OVC021 03/03 A2890 RMK AO2A DZE1115RAB1115 CIG 009V012 SLP788 ALSTG/SLP ESTMD WND DATA ESTMD 60018 12-HR ESTMD PCPN T00300027 10033 20027 5//// RVRNO PNO $


Station Type Date Time Source
PASY Decoded METAR 2022/01/29 11:59 UTC NOAA

SHEMYA EARECKSON AS, AK, United States (PASY) 52-43N 174-07E
Jan 29, 2022 - 06:59 AM EST / 2022.01.29 1159 UTC
Wind: from the N (350 degrees) at 9 MPH (8 KT):0
Visibility: 5 mile(s):0
Sky conditions: overcast
Weather: light rain; mist
Temperature: 37.4 F (3.0 C)
Dew Point: 36.9 F (2.7 C)
Relative Humidity: 97%
Pressure (altimeter): 28.9 in. Hg (978 hPa)
ob: PASY 291159Z 35008KT 5SM -RA BR BKN009 OVC021 03/03 A2890 RMK AO2A DZE1115RAB1115 CIG 009V012 SLP788 ALSTG/SLP ESTMD WND DATA ESTMD 60018 12-HR ESTMD PCPN T00300027 10033 20027 5//// RVRNO PNO
cycle: 12

Station Type Date Time Source
PASY TAF 2022/01/29 06:06 UTC NOAA

TAF PASY 290600Z 2906/3012 04025G35KT 8000 -RA OVC010 620158 520003 QNH2906INS
TEMPO 2906/2908 OVC008
BECMG 2911/2912 02025KT 6000 -RA OVC009 620099 510024 QNH2898INS
BECMG 2913/2914 34018KT 8000 -RA OVC005 620059 510023 QNH2895INS
BECMG 2914/2915 27025G35KT 8000 -RA OVC009 620099 510003 QNH2895INS
BECMG 2918/2919 23035G45KT 9999 NSW OVC020 620206 510003 QNH2908INS
BECMG 2923/2924 21025G35KT 9999 FEW025 BKN035 OVC055 620356 510003 QNH2938INS TX02/2913Z TN01/2920Z LIMITED METWATCH 2906 TIL 2917

Example: see airport list